sensor_id;sensor_type;location;lat;lon;timestamp;temperature;humidity
19665;DHT22;9980;51.020;7.772;2023-03-11T00:00:53;4.30;99.90
19665;DHT22;9980;51.020;7.772;2023-03-11T00:03:21;4.20;99.90
19665;DHT22;9980;51.020;7.772;2023-03-11T00:05:53;4.20;99.90
19665;DHT22;9980;51.020;7.772;2023-03-11T00:08:23;4.30;99.90
19665;DHT22;9980;51.020;7.772;2023-03-11T00:10:56;4.30;99.90
19665;DHT22;9980;51.020;7.772;2023-03-11T00:13:26;4.20;99.90
19665;DHT22;9980;51.020;7.772;2023-03-11T00:15:57;4.20;99.90
19665;DHT22;9980;51.020;7.772;2023-03-11T00:18:27;4.20;99.90
19665;DHT22;9980;51.020;7.772;2023-03-11T00:20:58;4.20;99.90
19665;DHT22;9980;51.020;7.772;2023-03-11T00:23:26;4.20;99.90
19665;DHT22;9980;51.020;7.772;2023-03-11T00:25:54;4.20;99.90
19665;DHT22;9980;51.020;7.772;2023-03-11T00:28:21;4.20;99.90
19665;DHT22;9980;51.020;7.772;2023-03-11T00:30:51;4.20;99.90
19665;DHT22;9980;51.020;7.772;2023-03-11T00:33:18;4.20;99.90
19665;DHT22;9980;51.020;7.772;2023-03-11T00:35:45;4.20;99.90
19665;DHT22;9980;51.020;7.772;2023-03-11T00:38:14;4.20;99.90
19665;DHT22;9980;51.020;7.772;2023-03-11T00:40:44;4.20;99.90
19665;DHT22;9980;51.020;7.772;2023-03-11T00:43:13;4.20;99.90
19665;DHT22;9980;51.020;7.772;2023-03-11T00:45:44;4.10;99.90
19665;DHT22;9980;51.020;7.772;2023-03-11T00:48:12;4.10;99.90
19665;DHT22;9980;51.020;7.772;2023-03-11T00:50:40;4.20;99.90
19665;DHT22;9980;51.020;7.772;2023-03-11T00:53:09;4.20;99.90
19665;DHT22;9980;51.020;7.772;2023-03-11T00:55:36;4.10;99.90
19665;DHT22;9980;51.020;7.772;2023-03-11T00:58:07;4.10;99.90
19665;DHT22;9980;51.020;7.772;2023-03-11T01:00:47;4.10;99.90
19665;DHT22;9980;51.020;7.772;2023-03-11T01:03:14;4.10;99.90
19665;DHT22;9980;51.020;7.772;2023-03-11T01:05:40;4.10;99.90
19665;DHT22;9980;51.020;7.772;2023-03-11T01:08:07;4.10;99.90
19665;DHT22;9980;51.020;7.772;2023-03-11T01:10:35;4.10;99.90
19665;DHT22;9980;51.020;7.772;2023-03-11T01:13:03;4.10;99.90
19665;DHT22;9980;51.020;7.772;2023-03-11T01:15:33;4.10;99.90
19665;DHT22;9980;51.020;7.772;2023-03-11T01:18:02;4.10;99.90
19665;DHT22;9980;51.020;7.772;2023-03-11T01:20:31;4.00;99.90
19665;DHT22;9980;51.020;7.772;2023-03-11T01:22:59;4.00;99.90
19665;DHT22;9980;51.020;7.772;2023-03-11T01:25:27;4.00;99.90
19665;DHT22;9980;51.020;7.772;2023-03-11T01:27:57;4.00;99.90
19665;DHT22;9980;51.020;7.772;2023-03-11T01:30:25;4.00;99.90
19665;DHT22;9980;51.020;7.772;2023-03-11T01:32:53;4.00;99.90
19665;DHT22;9980;51.020;7.772;2023-03-11T01:35:24;4.00;99.90
19665;DHT22;9980;51.020;7.772;2023-03-11T01:37:53;4.00;99.90
19665;DHT22;9980;51.020;7.772;2023-03-11T01:40:29;4.00;99.90
19665;DHT22;9980;51.020;7.772;2023-03-11T01:43:33;3.90;99.90
19665;DHT22;9980;51.020;7.772;2023-03-11T01:46:15;3.90;99.90
19665;DHT22;9980;51.020;7.772;2023-03-11T01:48:57;3.90;99.90
19665;DHT22;9980;51.020;7.772;2023-03-11T01:51:42;3.90;99.90
19665;DHT22;9980;51.020;7.772;2023-03-11T01:54:16;3.90;99.90
19665;DHT22;9980;51.020;7.772;2023-03-11T01:56:47;3.90;99.90
19665;DHT22;9980;51.020;7.772;2023-03-11T01:59:23;3.90;99.90
19665;DHT22;9980;51.020;7.772;2023-03-11T02:02:03;3.90;99.90
19665;DHT22;9980;51.020;7.772;2023-03-11T02:04:36;3.90;99.90
19665;DHT22;9980;51.020;7.772;2023-03-11T02:07:04;3.90;99.90
19665;DHT22;9980;51.020;7.772;2023-03-11T02:09:34;3.90;99.90
19665;DHT22;9980;51.020;7.772;2023-03-11T02:12:03;3.90;99.90
19665;DHT22;9980;51.020;7.772;2023-03-11T02:14:31;3.90;99.90
19665;DHT22;9980;51.020;7.772;2023-03-11T02:16:59;3.90;99.90
19665;DHT22;9980;51.020;7.772;2023-03-11T02:19:38;3.90;99.90
19665;DHT22;9980;51.020;7.772;2023-03-11T02:22:13;3.90;99.90
19665;DHT22;9980;51.020;7.772;2023-03-11T02:24:55;3.90;99.90
19665;DHT22;9980;51.020;7.772;2023-03-11T02:27:27;3.90;99.90
19665;DHT22;9980;51.020;7.772;2023-03-11T02:30:01;3.90;99.90
19665;DHT22;9980;51.020;7.772;2023-03-11T02:32:33;3.90;99.90
19665;DHT22;9980;51.020;7.772;2023-03-11T02:35:01;3.90;99.90
19665;DHT22;9980;51.020;7.772;2023-03-11T02:37:28;3.90;99.90
19665;DHT22;9980;51.020;7.772;2023-03-11T02:40:50;3.90;99.90
19665;DHT22;9980;51.020;7.772;2023-03-11T02:43:33;3.90;99.90
19665;DHT22;9980;51.020;7.772;2023-03-11T02:46:07;3.90;99.90
19665;DHT22;9980;51.020;7.772;2023-03-11T02:48:37;3.90;99.90
19665;DHT22;9980;51.020;7.772;2023-03-11T02:51:04;3.90;99.90
19665;DHT22;9980;51.020;7.772;2023-03-11T02:53:36;3.90;99.90
19665;DHT22;9980;51.020;7.772;2023-03-11T02:56:07;3.80;99.90
19665;DHT22;9980;51.020;7.772;2023-03-11T02:58:34;3.90;99.90
19665;DHT22;9980;51.020;7.772;2023-03-11T03:01:01;3.90;99.90
19665;DHT22;9980;51.020;7.772;2023-03-11T03:03:28;3.80;99.90
19665;DHT22;9980;51.020;7.772;2023-03-11T03:05:54;3.80;99.90
19665;DHT22;9980;51.020;7.772;2023-03-11T03:08:22;3.90;99.90
19665;DHT22;9980;51.020;7.772;2023-03-11T03:10:49;3.80;99.90
19665;DHT22;9980;51.020;7.772;2023-03-11T03:13:16;3.80;99.90
19665;DHT22;9980;51.020;7.772;2023-03-11T03:15:43;3.80;99.90
19665;DHT22;9980;51.020;7.772;2023-03-11T03:18:10;3.90;99.90
19665;DHT22;9980;51.020;7.772;2023-03-11T03:20:37;3.80;99.90
19665;DHT22;9980;51.020;7.772;2023-03-11T03:23:04;3.80;99.90
19665;DHT22;9980;51.020;7.772;2023-03-11T03:25:31;3.80;99.90
19665;DHT22;9980;51.020;7.772;2023-03-11T03:28:03;3.80;99.90
19665;DHT22;9980;51.020;7.772;2023-03-11T03:30:32;3.80;99.90
19665;DHT22;9980;51.020;7.772;2023-03-11T03:33:00;3.80;99.90
19665;DHT22;9980;51.020;7.772;2023-03-11T03:35:28;3.80;99.90
19665;DHT22;9980;51.020;7.772;2023-03-11T03:38:03;3.80;99.90
19665;DHT22;9980;51.020;7.772;2023-03-11T03:40:30;3.80;99.90
19665;DHT22;9980;51.020;7.772;2023-03-11T03:43:00;3.80;99.90
19665;DHT22;9980;51.020;7.772;2023-03-11T03:45:28;3.80;99.90
19665;DHT22;9980;51.020;7.772;2023-03-11T03:47:56;3.80;99.90
19665;DHT22;9980;51.020;7.772;2023-03-11T03:50:24;3.80;99.90
19665;DHT22;9980;51.020;7.772;2023-03-11T03:52:53;3.80;99.90
19665;DHT22;9980;51.020;7.772;2023-03-11T03:55:22;3.80;99.90
19665;DHT22;9980;51.020;7.772;2023-03-11T03:57:49;3.80;99.90
19665;DHT22;9980;51.020;7.772;2023-03-11T04:00:18;3.80;99.90
19665;DHT22;9980;51.020;7.772;2023-03-11T04:02:52;3.80;99.90
19665;DHT22;9980;51.020;7.772;2023-03-11T04:05:29;3.70;99.90
19665;DHT22;9980;51.020;7.772;2023-03-11T04:07:56;3.70;99.90
19665;DHT22;9980;51.020;7.772;2023-03-11T04:10:23;3.70;99.90
19665;DHT22;9980;51.020;7.772;2023-03-11T04:12:50;3.70;99.90
19665;DHT22;9980;51.020;7.772;2023-03-11T04:15:17;3.70;99.90
19665;DHT22;9980;51.020;7.772;2023-03-11T04:17:44;3.70;99.90
19665;DHT22;9980;51.020;7.772;2023-03-11T04:20:12;3.60;99.90
19665;DHT22;9980;51.020;7.772;2023-03-11T04:22:42;3.60;99.90
19665;DHT22;9980;51.020;7.772;2023-03-11T04:25:09;3.60;99.90
19665;DHT22;9980;51.020;7.772;2023-03-11T04:27:36;3.60;99.90
19665;DHT22;9980;51.020;7.772;2023-03-11T04:30:12;3.50;99.90
19665;DHT22;9980;51.020;7.772;2023-03-11T04:32:41;3.50;99.90
19665;DHT22;9980;51.020;7.772;2023-03-11T04:35:09;3.50;99.90
19665;DHT22;9980;51.020;7.772;2023-03-11T04:37:36;3.50;99.90
19665;DHT22;9980;51.020;7.772;2023-03-11T04:40:04;3.50;99.90
19665;DHT22;9980;51.020;7.772;2023-03-11T04:42:33;3.40;99.90
19665;DHT22;9980;51.020;7.772;2023-03-11T04:45:00;3.40;99.90
19665;DHT22;9980;51.020;7.772;2023-03-11T04:47:29;3.40;99.90
19665;DHT22;9980;51.020;7.772;2023-03-11T04:49:56;3.40;99.90
19665;DHT22;9980;51.020;7.772;2023-03-11T04:52:23;3.40;99.90
19665;DHT22;9980;51.020;7.772;2023-03-11T04:54:51;3.40;99.90
19665;DHT22;9980;51.020;7.772;2023-03-11T04:57:18;3.40;99.90
19665;DHT22;9980;51.020;7.772;2023-03-11T04:59:46;3.40;99.90
19665;DHT22;9980;51.020;7.772;2023-03-11T05:02:14;3.40;99.90
19665;DHT22;9980;51.020;7.772;2023-03-11T05:04:49;3.40;99.90
19665;DHT22;9980;51.020;7.772;2023-03-11T05:07:16;3.40;99.90
19665;DHT22;9980;51.020;7.772;2023-03-11T05:09:44;3.40;99.90
19665;DHT22;9980;51.020;7.772;2023-03-11T05:12:11;3.40;99.90
19665;DHT22;9980;51.020;7.772;2023-03-11T05:14:39;3.40;99.90
19665;DHT22;9980;51.020;7.772;2023-03-11T05:17:07;3.40;99.90
19665;DHT22;9980;51.020;7.772;2023-03-11T05:19:35;3.40;99.90
19665;DHT22;9980;51.020;7.772;2023-03-11T05:22:09;3.40;99.90
19665;DHT22;9980;51.020;7.772;2023-03-11T05:24:36;3.40;99.90
19665;DHT22;9980;51.020;7.772;2023-03-11T05:27:04;3.40;99.90
19665;DHT22;9980;51.020;7.772;2023-03-11T05:29:32;3.40;99.90
19665;DHT22;9980;51.020;7.772;2023-03-11T05:31:59;3.40;99.90
19665;DHT22;9980;51.020;7.772;2023-03-11T05:34:26;3.40;99.90
19665;DHT22;9980;51.020;7.772;2023-03-11T05:36:53;3.40;99.90
19665;DHT22;9980;51.020;7.772;2023-03-11T05:39:22;3.40;99.90
19665;DHT22;9980;51.020;7.772;2023-03-11T05:41:49;3.40;99.90
19665;DHT22;9980;51.020;7.772;2023-03-11T05:44:16;3.40;99.90
19665;DHT22;9980;51.020;7.772;2023-03-11T05:46:43;3.40;99.90
19665;DHT22;9980;51.020;7.772;2023-03-11T05:49:10;3.40;99.90
19665;DHT22;9980;51.020;7.772;2023-03-11T05:51:37;3.40;99.90
19665;DHT22;9980;51.020;7.772;2023-03-11T05:54:04;3.40;99.90
19665;DHT22;9980;51.020;7.772;2023-03-11T05:56:38;3.40;99.90
19665;DHT22;9980;51.020;7.772;2023-03-11T05:59:07;3.50;99.90
19665;DHT22;9980;51.020;7.772;2023-03-11T06:01:35;3.50;99.90
19665;DHT22;9980;51.020;7.772;2023-03-11T06:04:02;3.50;99.90
19665;DHT22;9980;51.020;7.772;2023-03-11T06:06:30;3.40;99.90
19665;DHT22;9980;51.020;7.772;2023-03-11T06:08:57;3.50;99.90
19665;DHT22;9980;51.020;7.772;2023-03-11T06:11:27;3.50;99.90
19665;DHT22;9980;51.020;7.772;2023-03-11T06:13:55;3.50;99.90
19665;DHT22;9980;51.020;7.772;2023-03-11T06:16:25;3.50;99.90
19665;DHT22;9980;51.020;7.772;2023-03-11T06:18:56;3.50;99.90
19665;DHT22;9980;51.020;7.772;2023-03-11T06:21:23;3.50;99.90
19665;DHT22;9980;51.020;7.772;2023-03-11T06:23:52;3.50;99.90
19665;DHT22;9980;51.020;7.772;2023-03-11T06:26:20;3.50;99.90
19665;DHT22;9980;51.020;7.772;2023-03-11T06:28:50;3.50;99.90
19665;DHT22;9980;51.020;7.772;2023-03-11T06:31:21;3.50;99.90
19665;DHT22;9980;51.020;7.772;2023-03-11T06:33:56;3.50;99.90
19665;DHT22;9980;51.020;7.772;2023-03-11T06:36:23;3.50;99.90
19665;DHT22;9980;51.020;7.772;2023-03-11T06:38:51;3.50;99.90
19665;DHT22;9980;51.020;7.772;2023-03-11T06:41:20;3.50;99.90
19665;DHT22;9980;51.020;7.772;2023-03-11T06:43:47;3.50;99.90
19665;DHT22;9980;51.020;7.772;2023-03-11T06:46:20;3.60;99.90
19665;DHT22;9980;51.020;7.772;2023-03-11T06:48:49;3.60;99.90
19665;DHT22;9980;51.020;7.772;2023-03-11T06:51:20;3.60;99.90
19665;DHT22;9980;51.020;7.772;2023-03-11T06:53:48;3.60;99.90
19665;DHT22;9980;51.020;7.772;2023-03-11T06:56:20;3.70;99.90
19665;DHT22;9980;51.020;7.772;2023-03-11T06:58:54;3.70;99.90
19665;DHT22;9980;51.020;7.772;2023-03-11T07:01:25;3.70;99.90
19665;DHT22;9980;51.020;7.772;2023-03-11T07:03:55;3.80;99.90
19665;DHT22;9980;51.020;7.772;2023-03-11T07:06:25;3.80;99.90
19665;DHT22;9980;51.020;7.772;2023-03-11T07:09:00;3.80;99.90
19665;DHT22;9980;51.020;7.772;2023-03-11T07:11:28;3.80;99.90
19665;DHT22;9980;51.020;7.772;2023-03-11T07:14:03;3.80;99.90
19665;DHT22;9980;51.020;7.772;2023-03-11T07:16:34;3.90;99.90
19665;DHT22;9980;51.020;7.772;2023-03-11T07:19:06;3.90;99.90
19665;DHT22;9980;51.020;7.772;2023-03-11T07:21:35;3.90;99.90
19665;DHT22;9980;51.020;7.772;2023-03-11T07:24:02;3.90;99.90
19665;DHT22;9980;51.020;7.772;2023-03-11T07:26:31;4.00;99.90
19665;DHT22;9980;51.020;7.772;2023-03-11T07:29:00;4.00;99.90
19665;DHT22;9980;51.020;7.772;2023-03-11T07:31:30;4.10;99.90
19665;DHT22;9980;51.020;7.772;2023-03-11T07:34:00;4.10;99.90
19665;DHT22;9980;51.020;7.772;2023-03-11T07:36:31;4.20;99.90
19665;DHT22;9980;51.020;7.772;2023-03-11T07:39:00;4.20;99.90
19665;DHT22;9980;51.020;7.772;2023-03-11T07:41:32;4.20;99.90
19665;DHT22;9980;51.020;7.772;2023-03-11T07:44:01;4.30;99.90
19665;DHT22;9980;51.020;7.772;2023-03-11T07:46:29;4.30;99.90
19665;DHT22;9980;51.020;7.772;2023-03-11T07:48:56;4.40;99.90
19665;DHT22;9980;51.020;7.772;2023-03-11T07:51:26;4.50;99.90
19665;DHT22;9980;51.020;7.772;2023-03-11T07:53:56;4.60;99.90
19665;DHT22;9980;51.020;7.772;2023-03-11T07:56:26;4.60;99.90
19665;DHT22;9980;51.020;7.772;2023-03-11T07:58:56;4.70;99.90
19665;DHT22;9980;51.020;7.772;2023-03-11T08:01:26;4.80;99.90
19665;DHT22;9980;51.020;7.772;2023-03-11T08:04:03;4.80;99.90
19665;DHT22;9980;51.020;7.772;2023-03-11T08:06:34;4.90;99.90
19665;DHT22;9980;51.020;7.772;2023-03-11T08:09:05;5.00;99.90
19665;DHT22;9980;51.020;7.772;2023-03-11T08:11:33;5.00;99.90
19665;DHT22;9980;51.020;7.772;2023-03-11T08:14:01;5.10;99.90
19665;DHT22;9980;51.020;7.772;2023-03-11T08:16:28;5.20;99.90
19665;DHT22;9980;51.020;7.772;2023-03-11T08:18:56;5.30;99.90
19665;DHT22;9980;51.020;7.772;2023-03-11T08:21:25;5.40;99.90
19665;DHT22;9980;51.020;7.772;2023-03-11T08:23:59;5.60;99.90
19665;DHT22;9980;51.020;7.772;2023-03-11T08:26:28;5.70;99.90
19665;DHT22;9980;51.020;7.772;2023-03-11T08:28:56;5.70;99.90
19665;DHT22;9980;51.020;7.772;2023-03-11T08:31:26;5.90;99.90
19665;DHT22;9980;51.020;7.772;2023-03-11T08:34:01;5.90;99.80
19665;DHT22;9980;51.020;7.772;2023-03-11T08:36:30;6.00;99.60
19665;DHT22;9980;51.020;7.772;2023-03-11T08:38:58;6.10;99.80
19665;DHT22;9980;51.020;7.772;2023-03-11T08:41:25;6.20;99.50
19665;DHT22;9980;51.020;7.772;2023-03-11T08:43:53;6.30;99.30
19665;DHT22;9980;51.020;7.772;2023-03-11T08:46:24;6.40;99.10
19665;DHT22;9980;51.020;7.772;2023-03-11T08:48:53;6.40;98.90
19665;DHT22;9980;51.020;7.772;2023-03-11T08:51:21;6.50;98.70
19665;DHT22;9980;51.020;7.772;2023-03-11T08:53:49;6.60;98.70
19665;DHT22;9980;51.020;7.772;2023-03-11T08:56:17;6.60;98.60
19665;DHT22;9980;51.020;7.772;2023-03-11T08:58:45;6.70;98.50
19665;DHT22;9980;51.020;7.772;2023-03-11T09:01:13;6.80;98.60
19665;DHT22;9980;51.020;7.772;2023-03-11T09:03:39;6.80;98.40
19665;DHT22;9980;51.020;7.772;2023-03-11T09:06:15;6.90;98.20
19665;DHT22;9980;51.020;7.772;2023-03-11T09:08:43;6.90;97.80
19665;DHT22;9980;51.020;7.772;2023-03-11T09:11:12;7.00;98.10
19665;DHT22;9980;51.020;7.772;2023-03-11T09:13:41;7.00;97.80
19665;DHT22;9980;51.020;7.772;2023-03-11T09:16:13;7.10;97.40
19665;DHT22;9980;51.020;7.772;2023-03-11T09:18:42;7.10;97.30
19665;DHT22;9980;51.020;7.772;2023-03-11T09:21:09;7.10;97.40
19665;DHT22;9980;51.020;7.772;2023-03-11T09:23:37;7.20;97.70
19665;DHT22;9980;51.020;7.772;2023-03-11T09:26:04;7.20;97.00
19665;DHT22;9980;51.020;7.772;2023-03-11T09:28:31;7.30;96.80
19665;DHT22;9980;51.020;7.772;2023-03-11T09:30:58;7.30;96.80
19665;DHT22;9980;51.020;7.772;2023-03-11T09:33:25;7.40;96.90
19665;DHT22;9980;51.020;7.772;2023-03-11T09:35:52;7.40;96.10
19665;DHT22;9980;51.020;7.772;2023-03-11T09:38:19;7.40;96.70
19665;DHT22;9980;51.020;7.772;2023-03-11T09:40:58;7.50;96.00
19665;DHT22;9980;51.020;7.772;2023-03-11T09:46:40;7.60;96.10
19665;DHT22;9980;51.020;7.772;2023-03-11T09:54:55;7.90;95.30
19665;DHT22;9980;51.020;7.772;2023-03-11T09:57:28;7.90;95.40
19665;DHT22;9980;51.020;7.772;2023-03-11T10:00:00;8.00;95.10
19665;DHT22;9980;51.020;7.772;2023-03-11T10:02:38;8.00;94.90
19665;DHT22;9980;51.020;7.772;2023-03-11T10:05:25;8.10;94.50
19665;DHT22;9980;51.020;7.772;2023-03-11T10:08:11;8.10;93.90
19665;DHT22;9980;51.020;7.772;2023-03-11T10:11:24;8.20;94.80
19665;DHT22;9980;51.020;7.772;2023-03-11T10:14:36;8.20;94.10
19665;DHT22;9980;51.020;7.772;2023-03-11T10:17:32;8.30;94.80
19665;DHT22;9980;51.020;7.772;2023-03-11T10:20:21;8.30;94.10
19665;DHT22;9980;51.020;7.772;2023-03-11T10:28:17;8.40;93.00
19665;DHT22;9980;51.020;7.772;2023-03-11T10:31:00;8.40;93.60
19665;DHT22;9980;51.020;7.772;2023-03-11T10:33:40;8.40;93.90
19665;DHT22;9980;51.020;7.772;2023-03-11T10:36:18;8.40;93.70
19665;DHT22;9980;51.020;7.772;2023-03-11T10:38:51;8.50;93.70
19665;DHT22;9980;51.020;7.772;2023-03-11T10:41:41;8.60;92.90
19665;DHT22;9980;51.020;7.772;2023-03-11T10:44:35;8.60;92.70
19665;DHT22;9980;51.020;7.772;2023-03-11T10:47:04;8.70;92.40
19665;DHT22;9980;51.020;7.772;2023-03-11T10:49:32;8.70;93.20
19665;DHT22;9980;51.020;7.772;2023-03-11T10:52:02;8.80;93.30
19665;DHT22;9980;51.020;7.772;2023-03-11T10:54:35;8.80;93.40
19665;DHT22;9980;51.020;7.772;2023-03-11T10:59:55;8.90;92.80
19665;DHT22;9980;51.020;7.772;2023-03-11T11:07:48;9.10;92.20
19665;DHT22;9980;51.020;7.772;2023-03-11T11:10:23;9.10;91.90
19665;DHT22;9980;51.020;7.772;2023-03-11T11:12:59;9.20;92.40
19665;DHT22;9980;51.020;7.772;2023-03-11T11:15:32;9.20;93.20
19665;DHT22;9980;51.020;7.772;2023-03-11T11:18:02;9.30;93.20
19665;DHT22;9980;51.020;7.772;2023-03-11T11:20:32;9.40;92.50
19665;DHT22;9980;51.020;7.772;2023-03-11T11:23:01;9.50;92.70
19665;DHT22;9980;51.020;7.772;2023-03-11T11:25:37;9.60;92.30
19665;DHT22;9980;51.020;7.772;2023-03-11T11:28:17;9.70;92.40
19665;DHT22;9980;51.020;7.772;2023-03-11T11:30:55;9.80;91.50
19665;DHT22;9980;51.020;7.772;2023-03-11T11:33:39;9.80;90.90
19665;DHT22;9980;51.020;7.772;2023-03-11T11:36:17;9.90;91.80
19665;DHT22;9980;51.020;7.772;2023-03-11T11:38:45;9.90;91.40
19665;DHT22;9980;51.020;7.772;2023-03-11T11:41:15;9.90;91.60
19665;DHT22;9980;51.020;7.772;2023-03-11T11:43:47;9.90;91.30
19665;DHT22;9980;51.020;7.772;2023-03-11T11:49:26;10.00;91.70
19665;DHT22;9980;51.020;7.772;2023-03-11T11:52:05;10.00;91.00
19665;DHT22;9980;51.020;7.772;2023-03-11T11:54:52;10.10;91.20
19665;DHT22;9980;51.020;7.772;2023-03-11T11:57:24;10.10;89.50
19665;DHT22;9980;51.020;7.772;2023-03-11T11:59:52;10.10;90.00
19665;DHT22;9980;51.020;7.772;2023-03-11T12:05:30;10.10;88.30
19665;DHT22;9980;51.020;7.772;2023-03-11T12:08:11;10.10;87.60
19665;DHT22;9980;51.020;7.772;2023-03-11T12:13:40;10.00;90.10
19665;DHT22;9980;51.020;7.772;2023-03-11T12:21:57;10.10;90.50
19665;DHT22;9980;51.020;7.772;2023-03-11T12:25:00;10.00;90.20
19665;DHT22;9980;51.020;7.772;2023-03-11T12:27:50;10.00;90.20
19665;DHT22;9980;51.020;7.772;2023-03-11T12:33:43;9.90;88.80
19665;DHT22;9980;51.020;7.772;2023-03-11T12:36:30;9.90;89.60
19665;DHT22;9980;51.020;7.772;2023-03-11T12:39:20;9.90;88.60
19665;DHT22;9980;51.020;7.772;2023-03-11T12:44:37;10.10;90.20
19665;DHT22;9980;51.020;7.772;2023-03-11T12:47:24;10.20;90.40
19665;DHT22;9980;51.020;7.772;2023-03-11T12:49:56;10.30;89.60
19665;DHT22;9980;51.020;7.772;2023-03-11T12:53:00;10.40;90.00
19665;DHT22;9980;51.020;7.772;2023-03-11T12:55:32;10.50;89.50
19665;DHT22;9980;51.020;7.772;2023-03-11T12:58:26;10.60;88.60
19665;DHT22;9980;51.020;7.772;2023-03-11T13:12:40;10.60;87.30
19665;DHT22;9980;51.020;7.772;2023-03-11T13:15:25;10.50;88.30
19665;DHT22;9980;51.020;7.772;2023-03-11T13:18:14;10.40;86.60
19665;DHT22;9980;51.020;7.772;2023-03-11T13:20:46;10.40;87.10
19665;DHT22;9980;51.020;7.772;2023-03-11T13:23:28;10.30;88.10
19665;DHT22;9980;51.020;7.772;2023-03-11T13:26:14;10.30;88.00
19665;DHT22;9980;51.020;7.772;2023-03-11T13:29:23;10.20;87.80
19665;DHT22;9980;51.020;7.772;2023-03-11T13:35:43;10.10;88.20
19665;DHT22;9980;51.020;7.772;2023-03-11T13:41:41;10.10;86.90
19665;DHT22;9980;51.020;7.772;2023-03-11T13:46:44;10.10;85.50
19665;DHT22;9980;51.020;7.772;2023-03-11T13:49:44;10.10;86.30
19665;DHT22;9980;51.020;7.772;2023-03-11T13:52:28;10.10;86.50
19665;DHT22;9980;51.020;7.772;2023-03-11T13:57:35;10.00;85.20
19665;DHT22;9980;51.020;7.772;2023-03-11T14:00:06;10.00;86.00
19665;DHT22;9980;51.020;7.772;2023-03-11T14:03:16;10.00;86.30
19665;DHT22;9980;51.020;7.772;2023-03-11T14:06:02;9.90;87.00
19665;DHT22;9980;51.020;7.772;2023-03-11T14:08:34;9.90;86.00
19665;DHT22;9980;51.020;7.772;2023-03-11T14:11:11;9.90;86.60
19665;DHT22;9980;51.020;7.772;2023-03-11T14:19:13;9.90;86.00
19665;DHT22;9980;51.020;7.772;2023-03-11T14:21:49;9.80;86.30
19665;DHT22;9980;51.020;7.772;2023-03-11T14:24:27;9.80;86.80
19665;DHT22;9980;51.020;7.772;2023-03-11T14:26:57;9.90;86.90
19665;DHT22;9980;51.020;7.772;2023-03-11T14:29:32;9.90;86.40
19665;DHT22;9980;51.020;7.772;2023-03-11T14:32:34;9.90;85.70
19665;DHT22;9980;51.020;7.772;2023-03-11T14:35:15;9.90;86.90
19665;DHT22;9980;51.020;7.772;2023-03-11T14:37:44;10.00;86.80
19665;DHT22;9980;51.020;7.772;2023-03-11T14:40:38;10.00;86.30
19665;DHT22;9980;51.020;7.772;2023-03-11T14:43:06;9.90;86.50
19665;DHT22;9980;51.020;7.772;2023-03-11T14:45:35;9.90;85.30
19665;DHT22;9980;51.020;7.772;2023-03-11T14:48:26;9.90;86.00
19665;DHT22;9980;51.020;7.772;2023-03-11T14:50:57;9.90;84.20
19665;DHT22;9980;51.020;7.772;2023-03-11T14:53:36;9.90;84.20
19665;DHT22;9980;51.020;7.772;2023-03-11T14:56:16;9.90;84.90
19665;DHT22;9980;51.020;7.772;2023-03-11T14:59:14;9.90;84.90
19665;DHT22;9980;51.020;7.772;2023-03-11T15:01:49;9.90;84.00
19665;DHT22;9980;51.020;7.772;2023-03-11T15:04:33;9.90;84.70
19665;DHT22;9980;51.020;7.772;2023-03-11T15:07:04;9.90;85.10
19665;DHT22;9980;51.020;7.772;2023-03-11T15:09:31;9.90;85.60
19665;DHT22;9980;51.020;7.772;2023-03-11T15:12:02;10.00;85.60
19665;DHT22;9980;51.020;7.772;2023-03-11T15:20:24;10.00;84.00
19665;DHT22;9980;51.020;7.772;2023-03-11T15:22:55;10.00;84.70
19665;DHT22;9980;51.020;7.772;2023-03-11T15:25:36;10.00;84.60
19665;DHT22;9980;51.020;7.772;2023-03-11T15:28:23;9.90;84.40
19665;DHT22;9980;51.020;7.772;2023-03-11T15:41:46;9.70;84.00
19665;DHT22;9980;51.020;7.772;2023-03-11T15:45:03;9.60;83.10
19665;DHT22;9980;51.020;7.772;2023-03-11T15:47:38;9.50;81.50
19665;DHT22;9980;51.020;7.772;2023-03-11T15:52:53;9.50;83.90
19665;DHT22;9980;51.020;7.772;2023-03-11T15:55:22;9.50;84.00
19665;DHT22;9980;51.020;7.772;2023-03-11T15:57:57;9.50;84.10
19665;DHT22;9980;51.020;7.772;2023-03-11T16:00:28;9.40;84.20
19665;DHT22;9980;51.020;7.772;2023-03-11T16:02:55;9.40;84.30
19665;DHT22;9980;51.020;7.772;2023-03-11T16:05:23;9.40;83.50
19665;DHT22;9980;51.020;7.772;2023-03-11T16:07:51;9.30;83.90
19665;DHT22;9980;51.020;7.772;2023-03-11T16:10:21;9.30;83.20
19665;DHT22;9980;51.020;7.772;2023-03-11T16:12:50;9.20;83.10
19665;DHT22;9980;51.020;7.772;2023-03-11T16:17:47;9.10;84.30
19665;DHT22;9980;51.020;7.772;2023-03-11T16:20:17;9.10;85.30
19665;DHT22;9980;51.020;7.772;2023-03-11T16:22:47;9.00;85.20
19665;DHT22;9980;51.020;7.772;2023-03-11T16:27:52;8.90;84.70
19665;DHT22;9980;51.020;7.772;2023-03-11T16:30:22;8.80;84.60
19665;DHT22;9980;51.020;7.772;2023-03-11T16:32:50;8.70;85.30
19665;DHT22;9980;51.020;7.772;2023-03-11T16:35:17;8.70;86.00
19665;DHT22;9980;51.020;7.772;2023-03-11T16:37:45;8.60;86.60
19665;DHT22;9980;51.020;7.772;2023-03-11T16:40:15;8.60;86.80
19665;DHT22;9980;51.020;7.772;2023-03-11T16:42:44;8.50;86.20
19665;DHT22;9980;51.020;7.772;2023-03-11T16:45:13;8.50;86.80
19665;DHT22;9980;51.020;7.772;2023-03-11T16:47:41;8.40;87.30
19665;DHT22;9980;51.020;7.772;2023-03-11T16:50:09;8.40;87.40
19665;DHT22;9980;51.020;7.772;2023-03-11T16:52:37;8.30;87.90
19665;DHT22;9980;51.020;7.772;2023-03-11T16:55:04;8.20;88.60
19665;DHT22;9980;51.020;7.772;2023-03-11T16:57:31;8.20;89.00
19665;DHT22;9980;51.020;7.772;2023-03-11T16:59:58;8.10;89.60
19665;DHT22;9980;51.020;7.772;2023-03-11T17:02:25;8.10;90.00
19665;DHT22;9980;51.020;7.772;2023-03-11T17:04:52;8.00;90.10
19665;DHT22;9980;51.020;7.772;2023-03-11T17:07:19;7.90;90.10
19665;DHT22;9980;51.020;7.772;2023-03-11T17:09:49;7.80;90.30
19665;DHT22;9980;51.020;7.772;2023-03-11T17:12:17;7.70;90.50
19665;DHT22;9980;51.020;7.772;2023-03-11T17:14:45;7.60;90.80
19665;DHT22;9980;51.020;7.772;2023-03-11T17:17:12;7.50;91.00
19665;DHT22;9980;51.020;7.772;2023-03-11T17:19:38;7.40;90.90
19665;DHT22;9980;51.020;7.772;2023-03-11T17:22:05;7.30;90.90
19665;DHT22;9980;51.020;7.772;2023-03-11T17:24:32;7.20;91.00
19665;DHT22;9980;51.020;7.772;2023-03-11T17:26:59;7.10;91.00
19665;DHT22;9980;51.020;7.772;2023-03-11T17:29:26;7.00;91.10
19665;DHT22;9980;51.020;7.772;2023-03-11T17:31:53;6.90;91.10
19665;DHT22;9980;51.020;7.772;2023-03-11T17:34:20;6.80;91.20
19665;DHT22;9980;51.020;7.772;2023-03-11T17:36:48;6.80;91.50
19665;DHT22;9980;51.020;7.772;2023-03-11T17:39:15;6.70;91.70
19665;DHT22;9980;51.020;7.772;2023-03-11T17:41:42;6.60;91.80
19665;DHT22;9980;51.020;7.772;2023-03-11T17:44:09;6.50;91.70
19665;DHT22;9980;51.020;7.772;2023-03-11T17:46:38;6.50;91.90
19665;DHT22;9980;51.020;7.772;2023-03-11T17:49:08;6.40;91.90
19665;DHT22;9980;51.020;7.772;2023-03-11T17:51:38;6.30;92.00
19665;DHT22;9980;51.020;7.772;2023-03-11T17:54:05;6.20;92.10
19665;DHT22;9980;51.020;7.772;2023-03-11T17:56:32;6.10;92.30
19665;DHT22;9980;51.020;7.772;2023-03-11T17:58:59;6.00;92.50
19665;DHT22;9980;51.020;7.772;2023-03-11T18:01:27;6.00;92.60
19665;DHT22;9980;51.020;7.772;2023-03-11T18:03:55;5.90;92.70
19665;DHT22;9980;51.020;7.772;2023-03-11T18:06:23;5.80;92.80
19665;DHT22;9980;51.020;7.772;2023-03-11T18:08:50;5.80;92.90